Time;durP1;ratioP1;P1;durP2;ratioP2;P2;SDS_P1;SDS_P2;PMS_P1;PMS_P2;Temp;Humidity;BMP_temperature;BMP_pressure;BME280_temperature;BME280_humidity;BME280_pressure;Samples;Min_cycle;Max_cycle;Signal;HPM_P1;HPM_P2
2022/07/15 00:01:44;;;;;;;8.93;1.92;;;14.70;99.90;;;;;;6263969;22;20019;-69
2022/07/15 00:04:10;;;;;;;9.57;1.70;;;14.70;99.90;;;;;;6267665;22;20030;-70
2022/07/15 00:06:36;;;;;;;8.88;1.30;;;14.80;99.90;;;;;;6240141;22;20020;-70
2022/07/15 00:09:02;;;;;;;7.80;1.73;;;14.80;99.90;;;;;;6266904;22;20045;-70
2022/07/15 00:11:28;;;;;;;7.05;1.40;;;14.90;99.90;;;;;;6266920;22;20022;-70
2022/07/15 00:13:53;;;;;;;5.35;1.15;;;15.00;99.90;;;;;;6266380;22;20023;-70
2022/07/15 00:16:19;;;;;;;4.75;1.38;;;15.00;99.90;;;;;;6267517;22;20012;-69
2022/07/15 00:18:45;;;;;;;8.48;1.30;;;15.00;99.90;;;;;;6265464;22;20015;-69
2022/07/15 00:21:11;;;;;;;8.05;1.58;;;15.00;99.90;;;;;;6267807;22;20476;-69
2022/07/15 00:23:37;;;;;;;9.45;1.25;;;15.00;99.90;;;;;;6240156;22;20337;-69
2022/07/15 00:26:02;;;;;;;8.10;1.33;;;15.00;99.90;;;;;;6266875;22;20024;-70
2022/07/15 00:28:28;;;;;;;6.40;1.40;;;15.00;99.90;;;;;;6266418;22;20095;-70
2022/07/15 00:30:57;;;;;;;7.53;1.50;;;15.00;99.90;;;;;;6266723;22;20301;-69
2022/07/15 00:33:22;;;;;;;5.65;0.90;;;15.00;99.90;;;;;;6267394;22;20046;-69
2022/07/15 00:35:49;;;;;;;5.90;1.00;;;14.90;99.90;;;;;;6267011;22;20390;-70
2022/07/15 00:38:15;;;;;;;9.65;1.00;;;14.90;99.90;;;;;;6267344;22;20012;-69
2022/07/15 00:40:46;;;;;;;6.38;1.15;;;14.90;99.90;;;;;;6266054;22;20031;-70
2022/07/15 00:43:13;;;;;;;5.82;1.20;;;14.90;99.90;;;;;;6269213;22;20034;-69
2022/07/15 00:45:39;;;;;;;9.30;1.30;;;14.90;99.90;;;;;;6266149;22;20024;-69
2022/07/15 00:48:04;;;;;;;4.10;1.20;;;14.90;99.90;;;;;;6268836;22;20058;-69
2022/07/15 00:50:31;;;;;;;3.75;0.95;;;14.90;99.90;;;;;;6267207;22;20020;-69
2022/07/15 00:53:08;;;;;;;6.07;1.33;;;14.90;99.90;;;;;;6265944;22;20403;-69
2022/07/15 00:55:40;;;;;;;6.72;1.10;;;14.90;99.90;;;;;;6269162;22;20024;-69
2022/07/15 00:58:07;;;;;;;4.15;1.10;;;14.90;99.90;;;;;;6267637;22;20015;-69
2022/07/15 01:00:33;;;;;;;4.75;1.23;;;15.00;99.90;;;;;;6269583;22;20015;-69
2022/07/15 01:03:00;;;;;;;3.78;1.15;;;15.00;99.90;;;;;;6267631;22;20012;-69
2022/07/15 01:05:27;;;;;;;3.75;0.88;;;15.00;99.90;;;;;;6268966;22;20073;-69
2022/07/15 01:07:53;;;;;;;9.00;1.63;;;15.10;99.90;;;;;;6268556;22;20030;-69
2022/07/15 01:10:21;;;;;;;7.30;1.48;;;15.10;99.90;;;;;;6268054;22;20016;-69
2022/07/15 01:12:48;;;;;;;8.15;1.85;;;15.10;99.90;;;;;;6268788;22;20019;-69
2022/07/15 01:15:15;;;;;;;11.52;1.52;;;15.10;99.90;;;;;;6267933;22;20094;-69
2022/07/15 01:17:43;;;;;;;2.65;1.05;;;15.10;99.90;;;;;;6269238;22;20019;-70
2022/07/15 01:20:10;;;;;;;7.60;1.25;;;15.00;99.90;;;;;;6267377;22;20019;-70
2022/07/15 01:22:36;;;;;;;6.93;1.10;;;15.00;99.90;;;;;;6269293;22;20012;-69
2022/07/15 01:25:02;;;;;;;5.65;0.90;;;15.00;99.90;;;;;;6268162;22;20073;-69
2022/07/15 01:27:28;;;;;;;5.70;1.20;;;14.90;99.90;;;;;;6243175;22;20033;-70
2022/07/15 01:29:54;;;;;;;6.57;1.13;;;14.80;99.90;;;;;;6242864;22;20098;-69
2022/07/15 01:32:19;;;;;;;7.60;1.75;;;14.70;99.90;;;;;;6267352;22;20058;-69
2022/07/15 01:34:48;;;;;;;6.47;1.20;;;14.50;99.90;;;;;;6269352;22;20518;-69
2022/07/15 01:37:15;;;;;;;3.72;1.10;;;14.50;99.90;;;;;;6242798;22;20025;-69
2022/07/15 01:39:41;;;;;;;5.85;1.95;;;14.30;99.90;;;;;;6243986;22;20047;-69
2022/07/15 01:42:06;;;;;;;12.25;2.38;;;14.20;99.90;;;;;;6267952;22;20069;-69
2022/07/15 01:44:32;;;;;;;6.07;1.85;;;14.10;99.90;;;;;;6242877;22;20448;-69
2022/07/15 01:46:58;;;;;;;9.75;1.48;;;14.00;99.90;;;;;;6243086;22;20019;-69
2022/07/15 01:49:29;;;;;;;3.42;1.38;;;13.90;99.90;;;;;;6267614;22;20034;-69
2022/07/15 01:51:56;;;;;;;10.20;2.00;;;13.80;99.90;;;;;;6268477;22;20030;-70
2022/07/15 01:54:26;;;;;;;9.98;1.70;;;13.80;99.90;;;;;;6267216;22;20023;-70
2022/07/15 01:56:53;;;;;;;8.18;1.23;;;13.70;99.90;;;;;;6268724;22;20016;-69
2022/07/15 01:59:23;;;;;;;2.95;0.80;;;13.70;99.90;;;;;;6268181;22;20016;-69
2022/07/15 02:01:51;;;;;;;7.05;1.00;;;13.70;99.90;;;;;;6267629;22;20058;-70
2022/07/15 02:04:17;;;;;;;7.60;1.30;;;13.70;99.90;;;;;;6269090;22;20083;-70
2022/07/15 02:06:43;;;;;;;3.53;0.95;;;13.70;99.90;;;;;;6241810;22;20023;-70
2022/07/15 02:09:09;;;;;;;6.18;0.77;;;13.80;99.90;;;;;;6268633;22;20365;-70
2022/07/15 02:11:35;;;;;;;2.45;0.88;;;13.80;99.90;;;;;;6269119;22;20327;-69
2022/07/15 02:14:01;;;;;;;6.53;1.00;;;13.70;99.90;;;;;;6268364;22;20024;-69
2022/07/15 02:16:29;;;;;;;2.88;0.90;;;13.60;99.90;;;;;;6242142;22;20015;-69
2022/07/15 02:18:55;;;;;;;7.10;1.08;;;13.50;99.90;;;;;;6268284;22;20415;-69
2022/07/15 02:21:21;;;;;;;4.75;1.10;;;13.40;99.90;;;;;;6268395;22;20086;-68
2022/07/15 02:23:47;;;;;;;6.85;0.90;;;13.30;99.90;;;;;;6269327;22;20019;-69
2022/07/15 02:26:13;;;;;;;7.60;2.03;;;13.30;99.90;;;;;;6242976;22;20041;-69
2022/07/15 02:28:39;;;;;;;13.98;3.50;;;13.20;99.90;;;;;;6267221;22;20051;-69
2022/07/15 02:31:05;;;;;;;7.78;3.22;;;13.30;99.90;;;;;;6268259;22;20023;-68
2022/07/15 02:33:31;;;;;;;7.32;2.92;;;13.30;99.90;;;;;;6266869;22;20019;-69
2022/07/15 02:35:57;;;;;;;8.63;2.50;;;13.30;99.90;;;;;;6267734;22;20019;-69
2022/07/15 02:38:23;;;;;;;8.93;2.55;;;13.30;99.90;;;;;;6216990;22;20095;-69
2022/07/15 02:40:48;;;;;;;7.95;2.08;;;13.30;99.90;;;;;;6267750;22;20418;-69
2022/07/15 02:43:14;;;;;;;10.02;1.77;;;13.30;99.90;;;;;;6267665;22;20058;-69
2022/07/15 02:45:41;;;;;;;3.88;1.40;;;13.30;99.90;;;;;;6266894;22;20442;-70
2022/07/15 02:48:07;;;;;;;8.38;1.25;;;13.30;99.90;;;;;;6268035;22;20065;-69
2022/07/15 02:50:33;;;;;;;3.20;1.10;;;13.40;99.90;;;;;;6266976;22;20026;-68
2022/07/15 02:53:00;;;;;;;7.78;1.25;;;13.40;99.90;;;;;;6267812;22;20435;-69
2022/07/15 02:55:26;;;;;;;5.15;1.55;;;13.50;99.90;;;;;;6267042;22;20110;-69
2022/07/15 02:57:51;;;;;;;6.07;0.95;;;13.60;99.90;;;;;;6268300;22;20047;-69
2022/07/15 03:00:19;;;;;;;3.25;0.95;;;13.60;99.90;;;;;;6242161;22;20023;-68
2022/07/15 03:02:48;;;;;;;4.60;1.38;;;13.60;99.90;;;;;;6267079;22;20020;-69
2022/07/15 03:05:17;;;;;;;4.82;1.40;;;13.50;99.90;;;;;;6267324;22;20024;-69
2022/07/15 03:07:44;;;;;;;6.65;1.60;;;13.50;99.90;;;;;;6266649;22;20090;-69
2022/07/15 03:10:10;;;;;;;12.18;2.13;;;13.40;99.90;;;;;;6268012;22;20035;-69
2022/07/15 03:12:36;;;;;;;9.40;2.22;;;13.40;99.90;;;;;;6266595;22;20019;-69
2022/07/15 03:15:02;;;;;;;5.78;1.60;;;13.30;99.90;;;;;;6267551;22;20104;-70
2022/07/15 03:17:28;;;;;;;9.88;1.30;;;13.30;99.90;;;;;;6267465;22;20016;-69
2022/07/15 03:19:57;;;;;;;7.75;1.80;;;13.20;99.90;;;;;;6267111;22;20023;-68
2022/07/15 03:22:24;;;;;;;18.53;3.30;;;13.10;99.90;;;;;;6268341;22;20074;-69
2022/07/15 03:24:50;;;;;;;10.40;3.30;;;13.10;99.90;;;;;;6240702;22;20286;-69
2022/07/15 03:27:17;;;;;;;6.95;2.70;;;13.10;99.90;;;;;;6267463;22;20025;-69
2022/07/15 03:29:43;;;;;;;9.95;3.80;;;13.10;99.90;;;;;;6240990;22;20019;-69
2022/07/15 03:32:15;;;;;;;7.68;2.72;;;13.20;99.90;;;;;;6267514;22;20470;-69
2022/07/15 03:34:41;;;;;;;9.05;2.45;;;13.20;99.90;;;;;;6267399;22;20027;-69
2022/07/15 03:37:07;;;;;;;7.10;2.30;;;13.20;99.90;;;;;;6266926;22;20377;-69
2022/07/15 03:39:33;;;;;;;8.77;2.08;;;13.20;99.90;;;;;;6268131;22;20023;-69
2022/07/15 03:41:58;;;;;;;5.25;1.90;;;13.20;99.90;;;;;;6266265;22;20095;-70
2022/07/15 03:44:24;;;;;;;11.68;3.45;;;13.20;99.90;;;;;;6242187;22;20024;-69
2022/07/15 03:46:50;;;;;;;9.45;3.05;;;13.30;99.90;;;;;;6266145;22;20093;-69
2022/07/15 03:49:16;;;;;;;4.65;1.85;;;13.30;99.90;;;;;;6242277;22;20020;-69
2022/07/15 03:51:43;;;;;;;5.50;1.27;;;13.30;99.90;;;;;;6266579;22;20020;-69
2022/07/15 03:54:09;;;;;;;6.03;1.80;;;13.30;99.90;;;;;;6267092;22;20490;-69
2022/07/15 03:56:35;;;;;;;7.72;1.80;;;13.30;99.90;;;;;;6267744;22;20043;-68
2022/07/15 03:59:01;;;;;;;4.28;2.20;;;13.30;99.90;;;;;;6265953;22;20081;-69
2022/07/15 04:01:27;;;;;;;12.25;3.45;;;13.50;99.90;;;;;;6268163;22;20020;-69
2022/07/15 04:03:53;;;;;;;4.30;1.40;;;13.60;99.90;;;;;;6267913;22;20022;-69
2022/07/15 04:06:19;;;;;;;11.85;4.97;;;13.70;99.90;;;;;;6267627;22;20247;-69
2022/07/15 04:08:46;;;;;;;15.80;4.13;;;13.70;99.90;;;;;;6266130;22;20038;-69
2022/07/15 04:11:12;;;;;;;7.93;3.03;;;13.70;99.90;;;;;;6267446;22;20020;-69
2022/07/15 04:13:39;;;;;;;5.15;1.40;;;13.70;99.90;;;;;;6266652;22;20474;-69
2022/07/15 04:16:06;;;;;;;5.93;1.58;;;13.70;99.90;;;;;;6266461;22;20011;-69
2022/07/15 04:18:31;;;;;;;4.22;0.70;;;13.70;99.90;;;;;;6267753;22;20501;-69
2022/07/15 04:20:57;;;;;;;4.80;0.93;;;13.70;99.90;;;;;;6265900;22;20093;-69
2022/07/15 04:23:25;;;;;;;5.57;0.88;;;13.70;99.90;;;;;;6267032;22;20469;-69
2022/07/15 04:25:54;;;;;;;3.17;0.77;;;13.70;99.90;;;;;;6265868;22;20465;-69
2022/07/15 04:28:21;;;;;;;2.28;0.60;;;13.70;99.90;;;;;;6267433;22;20023;-69
2022/07/15 04:30:47;;;;;;;2.75;0.50;;;13.80;99.90;;;;;;6266279;22;20473;-69
2022/07/15 04:33:13;;;;;;;5.03;1.02;;;13.90;99.90;;;;;;6268276;22;20501;-69
2022/07/15 04:35:39;;;;;;;6.75;1.20;;;13.90;99.90;;;;;;6267646;22;20062;-69
2022/07/15 04:38:05;;;;;;;2.20;0.70;;;13.90;99.90;;;;;;6240216;22;20078;-69
2022/07/15 04:40:34;;;;;;;7.03;0.85;;;13.90;99.90;;;;;;6242106;22;20479;-69
2022/07/15 04:43:01;;;;;;;3.42;0.80;;;13.90;99.90;;;;;;6265479;22;20494;-70
2022/07/15 04:45:27;;;;;;;1.90;0.50;;;14.00;99.90;;;;;;6242410;22;20059;-69
2022/07/15 04:47:54;;;;;;;3.10;0.77;;;14.00;99.90;;;;;;6266271;22;20019;-70
2022/07/15 04:53:04;;;;;;;6.00;1.48;;;14.10;99.90;;;;;;6245939;22;20024;-70
2022/07/15 04:55:30;;;;;;;7.10;0.90;;;14.10;99.90;;;;;;6240434;22;20015;-69
2022/07/15 04:57:56;;;;;;;2.00;0.70;;;14.20;99.90;;;;;;6267493;22;20089;-69
2022/07/15 05:00:22;;;;;;;5.82;0.80;;;14.20;99.90;;;;;;6266827;22;20118;-70
2022/07/15 05:02:48;;;;;;;9.02;0.80;;;14.20;99.90;;;;;;6242510;22;20450;-69
2022/07/15 05:05:14;;;;;;;3.38;0.65;;;14.20;99.90;;;;;;6265201;22;20439;-69
2022/07/15 05:07:40;;;;;;;10.60;0.98;;;14.20;99.90;;;;;;6269270;22;20384;-69
2022/07/15 05:10:06;;;;;;;5.63;0.50;;;14.20;99.90;;;;;;6241138;22;20019;-70
2022/07/15 05:12:32;;;;;;;2.92;0.77;;;14.20;99.90;;;;;;6265750;22;20469;-70
2022/07/15 05:14:58;;;;;;;3.95;0.82;;;14.20;99.90;;;;;;6267518;22;20023;-70
2022/07/15 05:17:25;;;;;;;6.72;0.88;;;14.10;99.90;;;;;;6267017;22;20019;-70
2022/07/15 05:19:52;;;;;;;5.20;1.02;;;14.10;99.90;;;;;;6267418;22;20023;-69
2022/07/15 05:22:18;;;;;;;3.58;0.93;;;14.10;99.90;;;;;;6240078;22;20023;-70
2022/07/15 05:24:44;;;;;;;2.40;0.70;;;14.00;99.90;;;;;;6241620;22;20019;-69
2022/07/15 05:27:10;;;;;;;3.45;1.00;;;14.00;99.90;;;;;;6267770;22;20026;-69
2022/07/15 05:29:36;;;;;;;4.53;0.70;;;14.00;99.90;;;;;;6240827;22;20465;-69
2022/07/15 05:32:02;;;;;;;5.15;1.00;;;14.00;99.90;;;;;;6267381;22;20020;-70
2022/07/15 05:34:28;;;;;;;6.43;1.10;;;14.00;99.90;;;;;;6239886;22;20023;-69
2022/07/15 05:36:54;;;;;;;7.85;0.90;;;14.00;99.90;;;;;;6267263;22;20095;-69
2022/07/15 05:39:20;;;;;;;5.15;0.93;;;14.10;99.90;;;;;;6265275;22;20016;-69
2022/07/15 05:41:46;;;;;;;6.00;0.80;;;14.00;99.90;;;;;;6242856;22;20037;-69
2022/07/15 05:44:11;;;;;;;4.50;0.73;;;14.00;99.90;;;;;;6241626;22;20034;-69
2022/07/15 05:46:37;;;;;;;7.65;0.98;;;14.00;99.90;;;;;;6268252;22;20073;-69
2022/07/15 05:49:03;;;;;;;7.63;0.82;;;14.00;99.90;;;;;;6243821;22;20016;-69
2022/07/15 05:51:28;;;;;;;7.47;0.90;;;14.00;99.90;;;;;;6266853;22;20028;-69
2022/07/15 05:53:55;;;;;;;3.47;0.90;;;13.90;99.90;;;;;;6269158;22;20031;-69
2022/07/15 05:56:21;;;;;;;4.55;0.80;;;13.90;99.90;;;;;;6241094;22;20024;-69
2022/07/15 05:58:48;;;;;;;7.57;0.82;;;13.90;99.90;;;;;;6243800;22;20024;-69
2022/07/15 06:01:13;;;;;;;7.63;1.10;;;13.90;99.90;;;;;;6267039;22;20481;-69
2022/07/15 06:03:39;;;;;;;9.20;1.17;;;13.80;99.90;;;;;;6271194;22;20020;-69
2022/07/15 06:06:06;;;;;;;3.47;0.73;;;13.80;99.90;;;;;;6268212;22;20027;-69
2022/07/15 06:08:33;;;;;;;7.85;1.65;;;13.80;99.90;;;;;;6267922;22;20082;-69
2022/07/15 06:10:58;;;;;;;6.70;1.10;;;13.90;99.90;;;;;;6268847;22;20015;-69
2022/07/15 06:13:24;;;;;;;2.45;1.30;;;14.10;99.90;;;;;;6266364;22;20511;-69
2022/07/15 06:15:50;;;;;;;3.20;1.05;;;14.30;99.90;;;;;;6268651;22;20031;-70
2022/07/15 06:18:17;;;;;;;3.80;1.52;;;14.70;99.90;;;;;;6241107;22;20043;-69
2022/07/15 06:20:42;;;;;;;7.97;1.13;;;15.10;99.90;;;;;;6268637;22;20447;-70
2022/07/15 06:23:08;;;;;;;4.10;0.95;;;15.30;99.90;;;;;;6267546;22;20023;-69
2022/07/15 06:25:34;;;;;;;9.75;1.17;;;15.40;99.90;;;;;;6217115;22;20019;-69
2022/07/15 06:28:01;;;;;;;7.28;0.88;;;15.50;99.90;;;;;;6268735;22;20103;-69
2022/07/15 06:30:27;;;;;;;7.60;0.70;;;15.60;99.90;;;;;;6266814;22;20027;-69
2022/07/15 06:32:52;;;;;;;3.70;1.77;;;15.60;99.90;;;;;;6243135;22;20019;-70
2022/07/15 06:35:18;;;;;;;7.82;1.60;;;15.70;99.90;;;;;;6266676;22;20020;-69
2022/07/15 06:37:44;;;;;;;6.25;1.23;;;15.70;99.90;;;;;;6268428;22;20023;-69
2022/07/15 06:40:10;;;;;;;3.58;1.30;;;15.70;99.90;;;;;;6267437;22;20019;-70
2022/07/15 06:42:37;;;;;;;2.75;1.05;;;15.70;99.90;;;;;;6267635;22;20026;-70
2022/07/15 06:45:05;;;;;;;3.20;1.40;;;15.60;99.90;;;;;;6267978;22;20026;-70
2022/07/15 06:47:31;;;;;;;2.38;0.95;;;15.50;99.90;;;;;;6266585;22;20351;-70
2022/07/15 06:49:57;;;;;;;2.60;0.70;;;15.30;99.90;;;;;;6268389;22;20085;-69
2022/07/15 06:52:23;;;;;;;5.45;2.70;;;15.20;99.90;;;;;;6265831;22;20020;-70
2022/07/15 06:54:49;;;;;;;1.67;0.68;;;15.10;99.90;;;;;;6242941;22;20049;-70
2022/07/15 06:57:16;;;;;;;4.28;0.65;;;15.10;99.90;;;;;;6240417;22;20023;-69
2022/07/15 06:59:43;;;;;;;4.88;0.70;;;15.00;99.90;;;;;;6268663;22;20338;-70
2022/07/15 07:02:10;;;;;;;4.55;0.40;;;15.00;99.90;;;;;;6241756;22;20935;-70
2022/07/15 07:04:36;;;;;;;1.95;0.63;;;14.90;99.90;;;;;;6267067;22;20042;-70
2022/07/15 07:07:02;;;;;;;0.93;0.40;;;14.90;99.90;;;;;;6268363;22;20435;-69
2022/07/15 07:09:28;;;;;;;3.20;0.52;;;14.80;99.90;;;;;;6267606;22;20023;-70
2022/07/15 07:11:53;;;;;;;1.95;0.90;;;14.70;99.90;;;;;;6267810;22;20020;-69
2022/07/15 07:14:19;;;;;;;3.97;0.30;;;14.70;99.90;;;;;;6265631;22;20082;-69
2022/07/15 07:16:46;;;;;;;1.02;0.20;;;14.70;99.90;;;;;;6267756;22;20019;-70
2022/07/15 07:19:13;;;;;;;1.30;0.30;;;14.80;99.90;;;;;;6266789;22;20024;-69
2022/07/15 07:21:39;;;;;;;0.68;0.30;;;15.00;99.90;;;;;;6267735;22;20027;-69
2022/07/15 07:24:07;;;;;;;1.25;0.22;;;15.40;99.90;;;;;;6239408;22;20020;-70
2022/07/15 07:26:33;;;;;;;2.95;0.25;;;15.80;99.90;;;;;;6263560;22;20054;-69
2022/07/15 07:28:59;;;;;;;0.70;0.40;;;16.10;99.90;;;;;;6267487;22;20038;-68
2022/07/15 07:31:27;;;;;;;2.55;0.30;;;16.20;99.90;;;;;;6262407;22;20012;-69
2022/07/15 07:33:55;;;;;;;2.40;0.43;;;16.20;99.90;;;;;;6264985;22;20069;-69
2022/07/15 07:36:21;;;;;;;9.30;0.90;;;16.20;99.90;;;;;;6262523;22;20370;-68
2022/07/15 07:38:47;;;;;;;2.03;0.60;;;16.20;99.90;;;;;;6265377;22;20012;-69
2022/07/15 07:41:13;;;;;;;2.72;0.70;;;16.10;99.90;;;;;;6266214;22;20043;-69
2022/07/15 07:43:39;;;;;;;2.10;0.88;;;16.10;99.90;;;;;;6262315;22;20024;-70
2022/07/15 07:46:05;;;;;;;1.95;0.70;;;16.00;99.90;;;;;;6266484;22;20599;-69
2022/07/15 07:48:30;;;;;;;5.95;0.63;;;16.20;99.90;;;;;;6266700;22;20019;-69
2022/07/15 07:50:57;;;;;;;3.08;0.38;;;16.40;99.90;;;;;;6267234;22;20091;-70
2022/07/15 07:53:23;;;;;;;1.25;0.45;;;16.50;99.90;;;;;;6264961;22;20074;-69
2022/07/15 07:55:50;;;;;;;1.42;0.73;;;16.50;99.90;;;;;;6266864;22;20019;-69
2022/07/15 07:58:16;;;;;;;3.83;0.70;;;16.40;99.90;;;;;;6264646;22;20027;-69
2022/07/15 08:00:43;;;;;;;3.72;0.80;;;16.40;99.90;;;;;;6266967;22;20038;-69
2022/07/15 08:03:09;;;;;;;3.40;0.65;;;16.30;99.90;;;;;;6216130;22;20031;-68
2022/07/15 08:05:35;;;;;;;2.80;0.57;;;16.30;99.90;;;;;;6265076;22;20573;-68
2022/07/15 08:08:07;;;;;;;1.58;0.35;;;16.20;99.90;;;;;;6267390;22;20495;-69
2022/07/15 08:10:32;;;;;;;5.20;0.57;;;16.20;99.90;;;;;;6265145;22;20027;-71
2022/07/15 08:13:00;;;;;;;2.50;0.80;;;16.10;99.90;;;;;;6269578;22;20020;-72
2022/07/15 08:15:26;;;;;;;7.70;0.60;;;16.10;99.90;;;;;;6240994;22;20459;-71
2022/07/15 08:17:52;;;;;;;4.88;0.68;;;16.00;99.90;;;;;;6240932;22;20012;-74
2022/07/15 08:20:18;;;;;;;4.43;0.88;;;16.00;99.90;;;;;;6266049;22;20046;-71
2022/07/15 08:22:44;;;;;;;3.17;0.70;;;15.90;99.90;;;;;;6265157;22;20017;-71
2022/07/15 08:25:10;;;;;;;3.72;0.50;;;15.90;99.90;;;;;;6267441;22;20028;-71
2022/07/15 08:27:35;;;;;;;12.52;1.50;;;15.90;99.90;;;;;;6265384;22;20098;-71
2022/07/15 08:30:01;;;;;;;4.53;0.70;;;16.30;99.90;;;;;;6241869;22;20105;-71
2022/07/15 08:32:27;;;;;;;2.13;0.50;;;16.80;99.90;;;;;;6240060;22;20498;-71
2022/07/15 08:34:52;;;;;;;0.98;0.35;;;17.10;99.90;;;;;;6267115;22;20020;-71
2022/07/15 08:37:18;;;;;;;2.95;0.65;;;17.60;99.90;;;;;;6266742;22;20318;-74
2022/07/15 08:39:44;;;;;;;1.75;0.50;;;17.60;99.90;;;;;;6266346;22;20449;-71
2022/07/15 08:42:10;;;;;;;2.97;0.57;;;17.30;99.90;;;;;;6267302;22;20081;-72
2022/07/15 08:44:36;;;;;;;2.33;0.65;;;16.90;99.20;;;;;;6265246;22;20328;-71
2022/07/15 08:47:05;;;;;;;3.40;0.77;;;16.70;99.90;;;;;;6267491;22;20019;-71
2022/07/15 08:49:32;;;;;;;9.07;0.88;;;16.90;99.90;;;;;;6265145;22;20024;-72
2022/07/15 08:52:00;;;;;;;3.38;0.73;;;17.20;99.90;;;;;;6267381;22;20030;-71
2022/07/15 08:54:26;;;;;;;5.65;0.43;;;17.10;97.10;;;;;;6265664;22;20055;-71
2022/07/15 08:56:52;;;;;;;1.02;0.50;;;17.20;94.20;;;;;;6241467;22;20016;-71
2022/07/15 08:59:19;;;;;;;1.75;0.40;;;17.50;95.80;;;;;;6241880;22;20079;-72
2022/07/15 09:01:48;;;;;;;0.73;0.43;;;17.90;92.00;;;;;;6239637;22;20331;-71
2022/07/15 09:04:15;;;;;;;6.35;0.40;;;18.20;90.20;;;;;;6267261;22;20020;-71
2022/07/15 09:06:43;;;;;;;2.47;0.60;;;18.20;93.00;;;;;;6264961;22;20115;-72
2022/07/15 09:09:18;;;;;;;4.15;0.63;;;18.10;85.90;;;;;;6267377;22;20024;-71
2022/07/15 09:11:52;;;;;;;6.63;0.50;;;18.30;97.90;;;;;;6265719;22;20055;-72
2022/07/15 09:14:19;;;;;;;2.72;0.50;;;18.50;83.20;;;;;;6241181;22;20012;-73
2022/07/15 09:16:46;;;;;;;0.93;0.70;;;18.10;82.90;;;;;;6270201;22;20023;-72
2022/07/15 09:19:11;;;;;;;2.05;0.50;;;18.10;92.50;;;;;;6267469;22;20015;-72
2022/07/15 09:21:42;;;;;;;1.02;0.35;;;18.30;84.30;;;;;;6243500;22;20020;-73
2022/07/15 09:24:18;;;;;;;2.33;0.40;;;18.60;68.50;;;;;;6267435;22;20015;-72
2022/07/15 09:26:44;;;;;;;4.95;0.80;;;18.90;80.60;;;;;;6268235;22;20303;-72
2022/07/15 09:36:01;;;;;;;2.17;0.40;;;17.70;96.30;;;;;;6269041;22;20028;-72
2022/07/15 09:37:59;;;;;;;5.90;1.40;;;17.30;98.00;;;;;;6268180;22;20019;-72
2022/07/15 09:40:26;;;;;;;5.05;0.50;;;17.10;99.50;;;;;;6268627;22;20328;-71
2022/07/15 09:43:05;;;;;;;3.20;0.63;;;17.10;99.90;;;;;;6268988;22;20355;-71
2022/07/15 09:45:32;;;;;;;8.02;4.53;;;17.30;99.90;;;;;;6267045;22;20035;-71
2022/07/15 09:48:09;;;;;;;4.70;2.20;;;17.40;99.90;;;;;;6269468;22;20044;-72
2022/07/15 09:50:39;;;;;;;2.08;0.60;;;17.60;95.00;;;;;;6267358;22;20028;-72
2022/07/15 09:53:14;;;;;;;2.00;1.60;;;17.80;91.60;;;;;;6242880;22;20015;-73
2022/07/15 09:55:40;;;;;;;2.70;1.48;;;17.80;92.90;;;;;;6268407;22;20016;-72
2022/07/15 09:58:07;;;;;;;4.00;1.02;;;17.60;81.60;;;;;;6267327;22;20016;-73
2022/07/15 10:00:34;;;;;;;4.60;0.63;;;17.30;85.40;;;;;;6268390;22;20098;-72
2022/07/15 10:03:02;;;;;;;3.00;0.57;;;17.10;93.40;;;;;;6267271;22;20020;-71
2022/07/15 10:05:28;;;;;;;1.73;0.63;;;17.10;92.20;;;;;;6268542;22;20065;-73
2022/07/15 10:07:56;;;;;;;4.47;0.73;;;17.00;88.90;;;;;;6269415;22;20077;-71
2022/07/15 10:10:23;;;;;;;2.38;0.70;;;17.10;92.90;;;;;;6270007;22;20073;-73
2022/07/15 10:13:05;;;;;;;2.22;0.65;;;17.20;91.70;;;;;;6242773;22;20390;-71
2022/07/15 10:15:43;;;;;;;2.20;0.32;;;17.30;92.50;;;;;;6266659;22;20027;-72
2022/07/15 10:18:18;;;;;;;3.75;0.63;;;17.50;95.10;;;;;;6268758;22;20030;-72
2022/07/15 10:21:08;;;;;;;13.13;1.40;;;17.40;95.80;;;;;;6266604;22;20015;-73
2022/07/15 10:24:19;;;;;;;9.45;1.30;;;17.00;99.90;;;;;;6267687;22;20051;-78
2022/07/15 10:27:04;;;;;;;2.85;1.10;;;16.60;99.90;;;;;;6175519;23;20377;-77
2022/07/15 10:29:31;;;;;;;2.97;0.70;;;16.30;99.90;;;;;;6149759;23;20028;-77
2022/07/15 10:31:59;;;;;;;3.35;0.55;;;16.30;99.90;;;;;;6220465;22;20052;-78
2022/07/15 10:34:36;;;;;;;7.15;0.70;;;16.40;99.90;;;;;;6268386;22;20015;-78
2022/07/15 10:37:10;;;;;;;2.42;0.75;;;16.50;99.90;;;;;;6266790;22;20038;-76
2022/07/15 10:40:04;;;;;;;1.42;0.40;;;16.50;99.90;;;;;;6242530;22;20079;-76
2022/07/15 10:42:57;;;;;;;4.28;0.82;;;16.60;99.90;;;;;;6241961;22;20195;-75
2022/07/15 10:45:23;;;;;;;3.08;0.93;;;16.70;99.90;;;;;;6241678;22;20032;-75
2022/07/15 10:48:25;;;;;;;4.63;0.70;;;16.70;99.90;;;;;;6268292;22;20030;-76
2022/07/15 10:50:50;;;;;;;4.50;0.40;;;16.80;99.90;;;;;;6266792;22;20390;-76
2022/07/15 10:53:19;;;;;;;1.40;0.43;;;16.70;99.90;;;;;;6268145;22;20016;-76
2022/07/15 10:55:45;;;;;;;1.90;0.70;;;16.80;99.90;;;;;;6267210;22;20081;-74
2022/07/15 10:58:13;;;;;;;1.23;0.50;;;16.80;99.90;;;;;;6267491;22;20434;-74
2022/07/15 11:00:40;;;;;;;4.07;0.80;;;16.90;99.90;;;;;;6242389;22;20026;-74
2022/07/15 11:03:13;;;;;;;1.00;0.75;;;17.00;99.90;;;;;;6264611;22;20024;-74
2022/07/15 11:05:48;;;;;;;2.00;0.57;;;17.20;99.90;;;;;;6267211;22;20397;-74
2022/07/15 11:08:36;;;;;;;2.55;0.47;;;17.30;99.90;;;;;;6266696;22;20049;-74
2022/07/15 11:11:14;;;;;;;4.18;0.40;;;17.40;96.40;;;;;;6267360;22;20026;-72
2022/07/15 11:13:47;;;;;;;0.95;0.32;;;17.50;97.40;;;;;;6267789;22;20059;-74
2022/07/15 11:16:20;;;;;;;4.90;1.10;;;17.60;94.30;;;;;;6266111;22;20023;-73
2022/07/15 11:18:57;;;;;;;3.22;0.60;;;17.70;93.30;;;;;;6267335;22;20058;-74
2022/07/15 11:21:23;;;;;;;3.70;0.60;;;17.70;96.80;;;;;;6266494;22;20027;-73
2022/07/15 11:23:51;;;;;;;7.88;1.05;;;17.70;95.60;;;;;;6267069;22;20034;-73
2022/07/15 11:26:18;;;;;;;3.78;0.65;;;17.60;96.40;;;;;;6267605;22;20051;-73
2022/07/15 11:28:54;;;;;;;1.42;0.38;;;17.50;96.20;;;;;;6265442;22;20036;-74
2022/07/15 11:31:21;;;;;;;5.80;0.85;;;17.30;95.10;;;;;;6267915;22;20031;-73
2022/07/15 11:33:47;;;;;;;1.42;0.68;;;17.20;94.70;;;;;;6267563;22;20026;-72
2022/07/15 11:36:22;;;;;;;2.40;0.52;;;17.10;98.30;;;;;;6267237;22;20388;-72
2022/07/15 11:38:49;;;;;;;2.65;0.68;;;17.20;97.50;;;;;;6265603;22;20153;-72
2022/07/15 11:46:46;;;;;;;3.25;0.73;;;17.40;94.70;;;;;;6267461;22;20031;-73
2022/07/15 11:49:24;;;;;;;3.40;0.60;;;17.40;91.70;;;;;;6242459;22;20050;-74
2022/07/15 11:51:50;;;;;;;1.10;0.60;;;17.50;97.70;;;;;;6268465;22;20019;-74
2022/07/15 11:54:18;;;;;;;3.90;0.75;;;17.60;91.10;;;;;;6267148;22;20015;-74
2022/07/15 11:56:52;;;;;;;2.25;0.60;;;17.70;96.00;;;;;;6267275;22;20073;-73
2022/07/15 11:59:17;;;;;;;2.95;0.63;;;17.80;91.10;;;;;;6265930;22;20423;-73
2022/07/15 12:01:43;;;;;;;5.78;0.55;;;17.90;95.30;;;;;;6216315;22;20047;-73
2022/07/15 12:04:10;;;;;;;1.50;0.50;;;18.00;86.70;;;;;;6266122;22;20443;-75
2022/07/15 12:06:36;;;;;;;1.58;0.50;;;18.10;90.70;;;;;;6267874;22;20367;-72
2022/07/15 12:09:08;;;;;;;2.70;0.47;;;18.10;87.80;;;;;;6266116;22;20022;-73
2022/07/15 12:11:36;;;;;;;2.42;0.60;;;18.10;78.10;;;;;;6266920;22;20027;-74
2022/07/15 12:14:11;;;;;;;4.93;0.70;;;18.10;86.50;;;;;;6241449;22;20020;-74
2022/07/15 12:17:07;;;;;;;8.63;0.63;;;18.10;97.70;;;;;;6265712;22;20018;-73
2022/07/15 12:19:33;;;;;;;0.30;0.30;;;17.80;92.00;;;;;;6242618;22;20030;-73
2022/07/15 12:22:05;;;;;;;0.95;0.50;;;17.50;83.80;;;;;;6240412;22;20447;-73
2022/07/15 12:24:44;;;;;;;6.18;0.80;;;17.40;92.30;;;;;;6267493;22;20470;-73
2022/07/15 12:27:11;;;;;;;0.83;0.50;;;17.30;91.10;;;;;;6241917;22;20024;-73
2022/07/15 12:29:37;;;;;;;1.55;0.70;;;17.30;86.20;;;;;;6240427;22;20103;-74
2022/07/15 12:32:05;;;;;;;0.98;0.30;;;17.40;95.10;;;;;;6266813;22;20015;-73
2022/07/15 12:34:46;;;;;;;1.45;0.47;;;17.50;93.60;;;;;;6265835;22;20016;-72
2022/07/15 12:37:17;;;;;;;2.92;0.47;;;17.40;93.60;;;;;;6267255;22;20074;-73
2022/07/15 12:40:05;;;;;;;4.65;0.77;;;17.30;97.10;;;;;;6267023;22;20087;-73
2022/07/15 12:42:47;;;;;;;0.70;0.40;;;17.20;99.50;;;;;;6265868;22;20024;-72
2022/07/15 12:45:22;;;;;;;0.65;0.50;;;17.20;97.80;;;;;;6241711;22;20028;-71
2022/07/15 12:48:16;;;;;;;1.35;0.60;;;17.20;99.90;;;;;;6266015;22;20019;-71
2022/07/15 12:50:48;;;;;;;1.38;0.40;;;17.30;99.90;;;;;;6266929;22;20082;-71
2022/07/15 12:53:15;;;;;;;2.47;0.60;;;17.30;99.90;;;;;;6269651;22;20024;-71
2022/07/15 12:55:44;;;;;;;4.97;0.73;;;17.40;99.90;;;;;;6242666;22;20024;-71
2022/07/15 12:58:16;;;;;;;2.05;0.73;;;17.60;99.90;;;;;;6243954;22;20027;-73
2022/07/15 13:00:44;;;;;;;5.75;0.85;;;17.70;99.90;;;;;;6267994;22;20324;-72
2022/07/15 13:03:11;;;;;;;4.32;1.02;;;17.70;99.90;;;;;;6243181;22;20027;-72
2022/07/15 13:05:42;;;;;;;4.50;0.93;;;17.70;99.90;;;;;;6269310;22;20377;-72